Time;durP1;ratioP1;P1;durP2;ratioP2;P2;SDS_P1;SDS_P2;PMS_P1;PMS_P2;Temp;Humidity;BMP_temperature;BMP_pressure;BME280_temperature;BME280_humidity;BME280_pressure;Samples;Min_cycle;Max_cycle;Signal;HPM_P1;HPM_P2
2023/10/08 00:00:43;;;;;;;17.90;7.25;;;;;;;17.37;100.00;102108.69;5017331;28;20030;-77
2023/10/08 00:03:09;;;;;;;17.55;6.22;;;;;;;17.38;100.00;102116.00;5015650;28;20116;-77
2023/10/08 00:05:36;;;;;;;18.58;5.68;;;;;;;17.37;100.00;102117.19;5021155;28;20031;-78
2023/10/08 00:08:02;;;;;;;16.25;7.03;;;;;;;17.36;100.00;102124.88;5028607;28;20551;-78
2023/10/08 00:10:27;;;;;;;12.82;6.88;;;;;;;17.33;100.00;102125.69;5021562;28;20116;-78
2023/10/08 00:12:52;;;;;;;16.42;7.32;;;;;;;17.33;100.00;102107.84;5030860;28;20034;-78
2023/10/08 00:15:18;;;;;;;14.32;7.00;;;;;;;17.31;100.00;102111.09;5021873;28;20052;-78
2023/10/08 00:17:45;;;;;;;14.07;5.63;;;;;;;17.28;100.00;102117.53;5022316;28;20120;-78
2023/10/08 00:20:16;;;;;;;13.77;6.40;;;;;;;17.30;100.00;102125.63;5020954;28;20034;-77
2023/10/08 00:22:47;;;;;;;17.40;6.80;;;;;;;17.27;100.00;102116.72;5026098;28;20037;-77
2023/10/08 00:25:12;;;;;;;19.15;7.38;;;;;;;17.25;100.00;102135.31;5022739;28;20063;-77
2023/10/08 00:27:38;;;;;;;19.65;7.03;;;;;;;17.23;100.00;102126.41;5020108;28;20124;-77
2023/10/08 00:30:13;;;;;;;18.00;7.57;;;;;;;17.13;100.00;102133.59;5019774;28;20029;-77
2023/10/08 00:32:38;;;;;;;21.75;7.53;;;;;;;17.06;100.00;102130.72;5023022;28;20087;-77
2023/10/08 00:35:05;;;;;;;25.70;8.18;;;;;;;17.05;100.00;102134.75;5023692;28;20033;-77
2023/10/08 00:37:30;;;;;;;23.63;7.40;;;;;;;17.09;100.00;102138.41;5012779;28;20498;-77
2023/10/08 00:39:57;;;;;;;16.77;6.47;;;;;;;17.06;100.00;102133.56;5013177;28;20037;-77
2023/10/08 00:42:22;;;;;;;17.70;7.47;;;;;;;16.99;100.00;102139.97;5015151;28;20025;-77
2023/10/08 00:44:48;;;;;;;23.70;8.65;;;;;;;17.02;100.00;102135.56;5023025;28;20075;-77
2023/10/08 00:47:16;;;;;;;11.20;6.18;;;;;;;17.00;100.00;102129.47;5014504;28;20026;-77
2023/10/08 00:55:06;;;;;;;21.08;7.18;;;;;;;16.86;100.00;102118.84;5021957;28;20596;-77
2023/10/08 00:57:36;;;;;;;24.38;8.20;;;;;;;16.76;100.00;102123.19;5022276;28;20033;-77
2023/10/08 01:00:06;;;;;;;18.10;7.25;;;;;;;16.81;100.00;102108.72;5030036;28;20481;-77
2023/10/08 01:02:48;;;;;;;16.08;6.63;;;;;;;16.88;100.00;102082.50;5015764;28;20124;-77
2023/10/08 01:05:25;;;;;;;17.35;7.18;;;;;;;16.82;100.00;102101.88;5028238;28;20055;-77
2023/10/08 01:07:52;;;;;;;16.33;7.65;;;;;;;16.84;100.00;102116.44;5014735;28;20378;-77
2023/10/08 01:10:20;;;;;;;19.90;7.18;;;;;;;16.83;100.00;102125.31;5019076;28;20508;-77
2023/10/08 01:13:04;;;;;;;11.57;5.55;;;;;;;16.29;100.00;102153.00;5017041;28;20022;-77
2023/10/08 01:15:30;;;;;;;11.25;3.97;;;;;;;15.94;100.00;102148.56;5018914;28;20026;-77
2023/10/08 01:18:00;;;;;;;11.43;4.88;;;;;;;16.01;100.00;102148.63;5019712;28;20040;-76
2023/10/08 01:22:59;;;;;;;2.67;2.03;;;;;;;15.56;100.00;102161.75;5018694;28;20034;-78
2023/10/08 01:25:29;;;;;;;4.90;2.65;;;;;;;15.53;100.00;102173.78;5015876;28;20504;-78
2023/10/08 01:28:01;;;;;;;7.43;2.92;;;;;;;15.41;100.00;102193.75;5028358;28;20060;-78
2023/10/08 01:30:30;;;;;;;4.55;1.83;;;;;;;15.51;100.00;102153.59;5033590;28;20033;-78
2023/10/08 01:32:56;;;;;;;3.20;1.95;;;;;;;15.37;100.00;102175.97;5022199;28;20033;-77
2023/10/08 01:35:24;;;;;;;4.25;2.13;;;;;;;15.65;100.00;102153.78;5019462;28;20037;-78
2023/10/08 01:37:50;;;;;;;4.18;1.88;;;;;;;15.90;100.00;102136.41;5032022;28;20025;-78
2023/10/08 01:40:18;;;;;;;4.13;2.70;;;;;;;15.61;100.00;102181.16;5022035;28;20467;-78
2023/10/08 01:42:43;;;;;;;5.03;2.33;;;;;;;15.67;100.00;102211.88;5023109;28;20034;-78
2023/10/08 01:45:12;;;;;;;3.28;1.80;;;;;;;15.58;100.00;102223.41;5014232;28;20048;-77
2023/10/08 01:47:38;;;;;;;4.32;1.75;;;;;;;15.48;100.00;102232.56;5025418;28;20422;-77
2023/10/08 01:50:21;;;;;;;1.85;1.33;;;;;;;15.42;100.00;102238.50;5020138;28;20025;-78
2023/10/08 01:52:46;;;;;;;2.72;1.52;;;;;;;15.36;100.00;102216.66;5020415;28;20132;-78
2023/10/08 01:55:17;;;;;;;4.95;1.48;;;;;;;15.11;100.00;102225.50;5014321;28;20617;-77
2023/10/08 01:57:43;;;;;;;2.45;1.70;;;;;;;14.96;100.00;102229.25;5021365;28;20029;-77
2023/10/08 02:00:09;;;;;;;2.22;1.42;;;;;;;15.13;100.00;102268.22;5030192;28;20025;-77
2023/10/08 02:02:34;;;;;;;2.53;1.48;;;;;;;15.35;100.00;102266.63;5024460;28;20034;-78
2023/10/08 02:05:00;;;;;;;4.25;1.20;;;;;;;15.45;100.00;102256.69;5021389;28;20211;-78
2023/10/08 02:07:25;;;;;;;1.67;1.00;;;;;;;15.56;100.00;102276.63;5024727;28;20454;-77
2023/10/08 02:09:50;;;;;;;3.55;1.08;;;;;;;15.48;100.00;102272.06;5017654;28;20500;-77
2023/10/08 02:12:16;;;;;;;1.58;0.80;;;;;;;15.34;100.00;102276.25;5028973;28;20066;-77
2023/10/08 02:14:41;;;;;;;2.03;0.73;;;;;;;15.39;100.00;102263.84;5019752;28;20033;-77
2023/10/08 02:17:09;;;;;;;1.67;0.77;;;;;;;15.14;100.00;102266.25;5031669;28;20053;-78
2023/10/08 02:19:36;;;;;;;3.70;0.80;;;;;;;15.07;100.00;102263.28;5017282;28;20052;-78
2023/10/08 02:22:05;;;;;;;0.88;0.68;;;;;;;15.20;100.00;102251.47;5016644;28;20029;-78
2023/10/08 02:24:31;;;;;;;1.60;0.80;;;;;;;15.17;100.00;102255.00;5012030;28;20131;-77
2023/10/08 02:26:57;;;;;;;1.10;0.60;;;;;;;15.25;100.00;102265.22;5009092;28;20054;-77
2023/10/08 02:29:25;;;;;;;3.35;1.00;;;;;;;15.12;100.00;102255.34;5015525;28;20531;-77
2023/10/08 02:31:51;;;;;;;2.78;1.00;;;;;;;15.16;100.00;102250.59;5031161;28;20120;-78
2023/10/08 02:34:16;;;;;;;0.90;0.70;;;;;;;15.16;100.00;102247.75;5015853;28;20125;-77
2023/10/08 02:36:41;;;;;;;1.60;0.90;;;;;;;15.07;100.00;102247.19;5028315;28;20379;-77
2023/10/08 02:39:21;;;;;;;1.63;1.17;;;;;;;14.97;100.00;102247.81;5028805;28;20102;-78
2023/10/08 02:41:48;;;;;;;1.10;0.80;;;;;;;14.96;100.00;102251.81;5025434;28;20025;-78
2023/10/08 02:44:14;;;;;;;2.35;1.08;;;;;;;15.20;100.00;102259.91;5037872;28;20518;-78
2023/10/08 02:46:49;;;;;;;1.42;0.73;;;;;;;15.18;100.00;102259.47;5037457;28;20021;-77
2023/10/08 02:49:20;;;;;;;1.15;0.63;;;;;;;15.20;100.00;102256.25;5023529;28;20030;-78
2023/10/08 02:51:50;;;;;;;1.30;0.75;;;;;;;15.43;100.00;102282.47;5027503;28;20490;-78
2023/10/08 02:54:18;;;;;;;1.40;0.77;;;;;;;15.00;100.00;102280.91;5040517;28;20064;-78
2023/10/08 02:56:51;;;;;;;2.83;0.93;;;;;;;15.30;100.00;102260.47;5026069;28;20037;-77
2023/10/08 02:59:17;;;;;;;1.05;0.65;;;;;;;15.25;100.00;102259.59;5030754;28;20037;-77
2023/10/08 03:01:42;;;;;;;3.63;1.05;;;;;;;15.06;100.00;102267.31;5034898;28;20028;-77
2023/10/08 03:04:18;;;;;;;2.35;1.20;;;;;;;14.84;100.00;102258.44;5022795;28;20045;-77
2023/10/08 03:06:49;;;;;;;2.17;1.00;;;;;;;15.12;100.00;102252.53;5031181;28;20599;-78
2023/10/08 03:09:20;;;;;;;1.48;1.10;;;;;;;14.96;100.00;102263.91;5020133;28;20405;-77
2023/10/08 03:11:47;;;;;;;2.13;1.10;;;;;;;15.18;100.00;102269.94;5020684;28;20440;-78
2023/10/08 03:14:21;;;;;;;1.42;1.10;;;;;;;15.20;100.00;102274.03;5027339;28;20037;-78
2023/10/08 03:16:51;;;;;;;1.45;0.90;;;;;;;15.24;100.00;102257.13;5022828;28;20089;-77
2023/10/08 03:19:19;;;;;;;4.60;1.10;;;;;;;15.12;100.00;102255.34;5032526;28;20033;-77
2023/10/08 03:21:50;;;;;;;1.67;1.05;;;;;;;15.14;100.00;102258.59;5022517;28;20029;-78
2023/10/08 03:27:07;;;;;;;3.53;1.10;;;;;;;15.23;100.00;102256.34;5022530;28;20072;-78
2023/10/08 03:29:45;;;;;;;1.45;1.02;;;;;;;15.25;100.00;102276.50;5028720;28;20115;-78
2023/10/08 03:32:14;;;;;;;2.08;1.10;;;;;;;15.33;100.00;102294.38;5041211;28;20029;-77
2023/10/08 03:34:43;;;;;;;4.32;2.35;;;;;;;15.33;100.00;102310.50;5025071;28;20512;-78
2023/10/08 03:37:09;;;;;;;1.58;1.10;;;;;;;15.32;100.00;102314.50;5022648;28;22031;-77
2023/10/08 03:40:00;;;;;;;1.17;0.63;;;;;;;15.32;100.00;102294.75;5024783;28;20113;-77
2023/10/08 03:42:33;;;;;;;1.92;1.17;;;;;;;15.18;100.00;102310.25;5017664;28;20056;-76
2023/10/08 03:45:09;;;;;;;6.25;1.13;;;;;;;15.24;100.00;102316.38;5025452;28;20166;-76
2023/10/08 03:47:37;;;;;;;1.23;0.70;;;;;;;15.31;100.00;102329.81;5024104;28;20477;-77
2023/10/08 03:50:06;;;;;;;2.17;0.93;;;;;;;15.31;100.00;102335.47;5017097;28;20044;-76
2023/10/08 03:52:36;;;;;;;3.97;1.15;;;;;;;15.27;100.00;102335.38;5017240;28;20120;-76
2023/10/08 03:55:26;;;;;;;2.38;0.90;;;;;;;15.28;100.00;102336.19;5020723;28;20661;-77
2023/10/08 03:57:56;;;;;;;1.77;1.10;;;;;;;15.28;100.00;102339.00;5023321;28;20386;-77
2023/10/08 04:00:28;;;;;;;1.95;1.02;;;;;;;15.22;100.00;102333.69;5018693;28;20040;-77
2023/10/08 04:03:07;;;;;;;1.48;1.10;;;;;;;15.20;100.00;102347.34;5031095;28;20029;-76
2023/10/08 04:05:49;;;;;;;1.52;1.00;;;;;;;15.19;100.00;102368.28;5018730;28;20127;-76
2023/10/08 04:08:24;;;;;;;3.08;1.30;;;;;;;15.01;100.00;102373.59;5018608;28;20100;-76
2023/10/08 04:11:07;;;;;;;2.53;1.30;;;;;;;15.18;100.00;102361.00;5022920;28;20037;-76
2023/10/08 04:13:34;;;;;;;2.17;1.10;;;;;;;15.18;100.00;102361.00;5016075;28;20433;-76
2023/10/08 04:15:59;;;;;;;1.75;1.10;;;;;;;15.20;100.00;102369.09;5017576;28;20022;-76
2023/10/08 04:18:25;;;;;;;2.75;1.02;;;;;;;15.21;100.00;102394.09;5021286;28;20462;-77
2023/10/08 04:21:00;;;;;;;1.92;1.60;;;;;;;15.18;100.00;102374.31;5028598;28;20545;-76
2023/10/08 04:23:26;;;;;;;3.13;1.30;;;;;;;15.13;100.00;102332.28;5015753;28;20044;-76
2023/10/08 04:25:54;;;;;;;3.63;1.55;;;;;;;15.22;100.00;102336.50;5014861;28;20029;-76
2023/10/08 04:28:20;;;;;;;2.53;1.35;;;;;;;15.21;100.00;102342.53;5035185;28;20063;-76
2023/10/08 04:30:53;;;;;;;2.42;1.10;;;;;;;15.17;100.00;102353.72;5028381;28;20056;-76
2023/10/08 04:33:19;;;;;;;2.42;1.20;;;;;;;15.11;100.00;102338.31;5023332;28;20087;-77
2023/10/08 04:35:48;;;;;;;2.58;1.40;;;;;;;15.17;100.00;102321.91;5016226;28;20390;-76
2023/10/08 04:38:21;;;;;;;2.70;1.25;;;;;;;14.81;100.00;102341.75;5027326;28;20505;-76
2023/10/08 04:40:53;;;;;;;2.22;1.35;;;;;;;15.00;100.00;102342.94;5014200;28;20041;-76
2023/10/08 04:43:25;;;;;;;2.85;1.50;;;;;;;14.99;100.00;102339.31;5019610;28;20196;-76
2023/10/08 04:45:58;;;;;;;4.75;1.63;;;;;;;14.95;100.00;102365.81;5028678;28;20512;-76
2023/10/08 04:48:24;;;;;;;2.42;1.55;;;;;;;14.95;100.00;102369.44;5032426;28;20543;-77
2023/10/08 04:51:01;;;;;;;3.45;1.50;;;;;;;14.94;100.00;102384.69;5021292;28;20026;-77
2023/10/08 04:53:32;;;;;;;2.92;1.60;;;;;;;15.01;100.00;102382.03;5018527;28;20021;-76
2023/10/08 04:56:19;;;;;;;2.17;1.15;;;;;;;15.06;100.00;102397.03;5023142;28;20176;-77
2023/10/08 04:58:46;;;;;;;3.17;1.50;;;;;;;14.97;100.00;102381.16;5033820;28;20598;-76
2023/10/08 05:01:20;;;;;;;1.65;1.08;;;;;;;15.04;100.00;102378.47;5021580;28;20041;-77
2023/10/08 05:09:38;;;;;;;3.50;1.58;;;;;;;14.95;100.00;102377.06;5021644;28;20026;-78
2023/10/08 05:14:36;;;;;;;2.55;1.20;;;;;;;14.83;100.00;102404.22;5023413;28;20117;-78
2023/10/08 05:17:11;;;;;;;3.97;1.10;;;;;;;14.96;100.00;102418.97;5015868;28;20116;-77
2023/10/08 05:25:08;;;;;;;2.20;1.00;;;;;;;14.97;100.00;102412.16;5007719;28;20033;-77
2023/10/08 05:27:56;;;;;;;3.35;1.38;;;;;;;14.79;100.00;102397.69;5015751;28;20052;-78
2023/10/08 05:30:53;;;;;;;4.57;1.25;;;;;;;14.80;100.00;102387.25;5019432;28;20029;-77
2023/10/08 05:33:25;;;;;;;1.77;1.20;;;;;;;14.89;100.00;102420.84;5013930;28;20037;-78
2023/10/08 05:36:02;;;;;;;1.73;1.13;;;;;;;14.89;100.00;102423.66;5026256;28;20493;-77
2023/10/08 05:49:01;;;;;;;1.90;0.82;;;;;;;14.86;100.00;102435.66;5014785;28;20029;-77
2023/10/08 05:54:36;;;;;;;1.17;0.82;;;;;;;14.82;100.00;102470.25;5016662;28;20037;-77
2023/10/08 05:59:39;;;;;;;1.02;0.75;;;;;;;14.86;100.00;102442.13;5008177;28;20128;-76
2023/10/08 06:05:20;;;;;;;2.17;1.17;;;;;;;14.79;100.00;102451.25;5030558;28;20032;-76
2023/10/08 06:13:09;;;;;;;3.13;1.25;;;;;;;14.66;100.00;102430.00;5026771;28;20017;-78
2023/10/08 06:18:29;;;;;;;1.88;0.95;;;;;;;14.63;100.00;102430.75;5020031;28;20045;-77
2023/10/08 06:21:01;;;;;;;2.10;1.05;;;;;;;14.66;100.00;102420.75;5026224;28;20551;-78
2023/10/08 06:23:35;;;;;;;0.75;0.60;;;;;;;14.71;100.00;102421.25;5018937;28;20068;-77
2023/10/08 06:26:05;;;;;;;3.05;1.45;;;;;;;14.57;100.00;102421.78;5022048;28;20059;-78
2023/10/08 06:28:34;;;;;;;1.77;0.65;;;;;;;14.69;100.00;102417.19;5019644;28;20497;-78
2023/10/08 06:31:03;;;;;;;2.58;1.30;;;;;;;14.63;100.00;102419.47;5020587;28;20034;-78
2023/10/08 06:33:33;;;;;;;3.22;0.95;;;;;;;14.62;100.00;102412.22;5021508;28;20040;-77
2023/10/08 06:36:02;;;;;;;1.40;0.85;;;;;;;14.65;100.00;102425.53;5028273;28;20025;-78
2023/10/08 06:38:35;;;;;;;1.67;0.75;;;;;;;14.68;100.00;102461.47;5011940;28;20057;-77
2023/10/08 06:41:15;;;;;;;;;;;;;;;14.73;100.00;102471.63;5017434;28;20069;-77
2023/10/08 06:43:49;;;;;;;2.33;0.90;;;;;;;14.72;100.00;102473.63;5035928;28;19917;-77
2023/10/08 06:46:18;;;;;;;3.08;1.15;;;;;;;14.69;100.00;102502.53;5021658;28;20033;-77
2023/10/08 06:48:46;;;;;;;3.90;0.73;;;;;;;14.68;100.00;102512.19;5016875;28;20599;-78
2023/10/08 06:51:17;;;;;;;1.73;0.80;;;;;;;14.73;100.00;102511.91;5023402;28;20021;-78
2023/10/08 06:53:48;;;;;;;2.00;0.98;;;;;;;14.64;100.00;102512.09;5014222;28;20076;-78
2023/10/08 06:56:15;;;;;;;2.22;0.73;;;;;;;14.73;100.00;102509.09;5024606;28;20025;-78
2023/10/08 06:58:53;;;;;;;1.65;1.45;;;;;;;14.76;100.00;102480.19;5015129;28;20030;-78
2023/10/08 07:01:24;;;;;;;10.00;1.00;;;;;;;14.77;100.00;102493.06;5017648;28;20404;-83
2023/10/08 07:03:52;;;;;;;3.75;0.90;;;;;;;14.89;100.00;102499.78;5022779;28;20083;-82
2023/10/08 07:06:31;;;;;;;5.25;0.90;;;;;;;14.97;100.00;102507.22;5021975;28;20531;-83
2023/10/08 07:08:59;;;;;;;1.55;1.05;;;;;;;14.97;100.00;102512.88;5016941;28;20025;-82
2023/10/08 07:11:26;;;;;;;6.28;1.15;;;;;;;14.92;100.00;102521.59;5016676;28;20031;-77
2023/10/08 07:13:52;;;;;;;7.82;1.63;;;;;;;14.90;100.00;102526.78;5009723;28;20496;-76
2023/10/08 07:17:19;;;;;;;1.42;0.93;;;;;;;14.92;100.00;102533.69;5014818;28;20029;-76
2023/10/08 07:19:50;;;;;;;5.05;1.10;;;;;;;14.88;100.00;102527.13;5017586;28;20048;-76
2023/10/08 07:22:21;;;;;;;2.33;1.23;;;;;;;14.89;100.00;102527.97;5021097;28;20068;-76
2023/10/08 07:24:50;;;;;;;6.80;1.83;;;;;;;14.93;100.00;102540.16;5020484;28;20036;-76
2023/10/08 07:27:21;;;;;;;3.47;1.40;;;;;;;14.91;100.00;102532.06;5036701;28;20090;-76
2023/10/08 07:29:47;;;;;;;1.45;0.80;;;;;;;14.90;100.00;102513.50;5031812;28;20028;-76
2023/10/08 07:32:14;;;;;;;2.45;1.05;;;;;;;14.89;100.00;102496.97;5039054;28;20078;-76
2023/10/08 07:34:40;;;;;;;3.63;1.10;;;;;;;14.80;100.00;102495.16;5041136;28;20469;-76
2023/10/08 07:37:06;;;;;;;2.55;0.88;;;;;;;14.74;100.00;102488.19;5039802;28;20029;-76
2023/10/08 07:42:00;;;;;;;6.97;1.00;;;;;;;14.78;100.00;102517.28;5041308;28;20035;-75
2023/10/08 07:44:29;;;;;;;4.38;1.20;;;;;;;14.82;100.00;102523.81;5033359;28;20559;-75
2023/10/08 07:46:55;;;;;;;3.80;1.13;;;;;;;14.66;100.00;102485.56;5038804;28;20115;-76
2023/10/08 07:49:23;;;;;;;2.08;0.77;;;;;;;14.64;100.00;102474.66;5035166;28;20933;-75
2023/10/08 07:51:51;;;;;;;1.63;0.80;;;;;;;14.77;100.00;102492.25;5044950;28;20033;-75
2023/10/08 07:54:19;;;;;;;2.35;1.08;;;;;;;14.83;100.00;102488.78;5037099;28;20035;-75
2023/10/08 07:56:46;;;;;;;7.80;1.08;;;;;;;14.48;100.00;102511.28;5028997;28;20078;-75
2023/10/08 07:59:14;;;;;;;6.07;1.08;;;;;;;14.65;100.00;102546.72;5030651;28;20036;-76
2023/10/08 08:01:44;;;;;;;3.33;1.10;;;;;;;14.73;100.00;102554.19;5016778;28;20082;-75
2023/10/08 08:04:14;;;;;;;3.20;0.90;;;;;;;14.86;100.00;102568.97;5017595;28;20120;-75
2023/10/08 08:06:40;;;;;;;4.38;1.25;;;;;;;14.67;100.00;102578.19;5035596;28;20033;-75
2023/10/08 08:09:19;;;;;;;2.58;0.85;;;;;;;14.61;100.00;102593.75;5034112;28;20021;-76
2023/10/08 08:11:46;;;;;;;3.03;1.30;;;;;;;14.43;100.00;102584.81;5021881;28;20416;-75
2023/10/08 08:14:16;;;;;;;2.60;1.13;;;;;;;14.61;100.00;102579.69;5037448;28;20114;-75
2023/10/08 08:16:42;;;;;;;4.10;1.40;;;;;;;14.47;100.00;102559.56;5041011;28;20025;-75
2023/10/08 08:19:10;;;;;;;4.35;1.13;;;;;;;14.58;100.00;102552.22;5038698;28;20112;-77
2023/10/08 08:21:35;;;;;;;3.17;0.98;;;;;;;14.62;100.00;102559.56;5042174;28;20745;-76
2023/10/08 08:24:07;;;;;;;4.25;1.38;;;;;;;14.70;100.00;102571.84;5031883;28;20036;-77
2023/10/08 08:26:39;;;;;;;4.15;1.42;;;;;;;14.61;100.00;102554.31;5033822;28;20496;-77
2023/10/08 08:29:08;;;;;;;2.20;1.00;;;;;;;14.68;100.00;102574.19;5033111;28;20025;-76
2023/10/08 08:31:35;;;;;;;4.18;1.52;;;;;;;14.54;100.00;102602.00;5041126;28;20746;-73
2023/10/08 08:34:13;;;;;;;3.95;1.15;;;;;;;14.53;100.00;102601.19;5041161;28;20409;-74
2023/10/08 08:36:45;;;;;;;6.57;1.85;;;;;;;14.62;100.00;102596.19;5028654;28;20635;-73
2023/10/08 08:39:11;;;;;;;2.58;1.58;;;;;;;14.72;100.00;102594.84;5039026;28;20439;-76
2023/10/08 08:41:38;;;;;;;3.10;0.90;;;;;;;14.77;100.00;102597.38;5034168;28;20044;-75
2023/10/08 08:44:06;;;;;;;3.55;1.15;;;;;;;14.64;100.00;102588.19;5034842;28;20095;-76
2023/10/08 08:46:39;;;;;;;5.70;1.58;;;;;;;14.69;100.00;102587.09;5035804;28;20025;-77
2023/10/08 08:49:07;;;;;;;5.35;1.60;;;;;;;14.67;100.00;102580.19;5038975;28;20111;-75
2023/10/08 08:51:35;;;;;;;6.07;1.33;;;;;;;14.70;100.00;102569.03;5025781;28;20040;-74
2023/10/08 08:54:06;;;;;;;3.63;1.30;;;;;;;14.75;100.00;102563.09;5038077;28;20036;-75
2023/10/08 08:56:33;;;;;;;4.25;1.13;;;;;;;14.50;100.00;102576.53;5020650;28;20520;-74
2023/10/08 08:58:59;;;;;;;8.98;1.23;;;;;;;14.59;100.00;102582.84;5032729;28;20033;-75
2023/10/08 09:01:25;;;;;;;3.28;1.30;;;;;;;14.57;100.00;102578.78;5044203;28;20512;-74
2023/10/08 09:03:50;;;;;;;3.65;1.13;;;;;;;14.61;100.00;102579.69;5042659;28;20115;-74
2023/10/08 09:06:16;;;;;;;4.05;1.30;;;;;;;14.48;100.00;102581.72;5041246;28;20025;-74
2023/10/08 09:08:42;;;;;;;4.35;1.10;;;;;;;14.53;100.00;102594.72;5037980;28;20170;-74
2023/10/08 09:11:14;;;;;;;3.92;1.35;;;;;;;14.49;100.00;102591.00;5043775;28;20096;-75
2023/10/08 09:13:40;;;;;;;3.30;1.10;;;;;;;14.69;100.00;102601.19;5044785;28;20068;-75
2023/10/08 09:16:15;;;;;;;2.50;0.98;;;;;;;14.74;100.00;102606.56;5042872;28;20519;-74
2023/10/08 09:18:51;;;;;;;3.80;0.90;;;;;;;14.70;100.00;102588.75;5041463;28;20108;-75
2023/10/08 09:21:19;;;;;;;3.85;0.95;;;;;;;14.60;100.00;102578.03;5046169;28;20120;-74
2023/10/08 09:23:50;;;;;;;3.75;1.00;;;;;;;14.58;100.00;102575.56;5019967;28;20044;-75
2023/10/08 09:26:19;;;;;;;8.70;1.85;;;;;;;14.68;100.00;102573.41;5035950;28;20511;-74
2023/10/08 09:28:46;;;;;;;2.72;1.15;;;;;;;14.82;100.00;102570.91;5036531;28;20047;-75
2023/10/08 09:31:13;;;;;;;5.43;1.00;;;;;;;14.82;100.00;102570.91;5043908;28;20039;-74
2023/10/08 09:33:39;;;;;;;8.68;2.10;;;;;;;14.55;100.00;102569.81;5037656;28;20564;-74
2023/10/08 09:36:06;;;;;;;5.30;1.40;;;;;;;14.70;100.00;102571.03;5041205;28;20064;-75
2023/10/08 09:38:33;;;;;;;5.90;1.35;;;;;;;14.84;100.00;102579.81;5041186;28;20120;-75
2023/10/08 09:41:03;;;;;;;5.18;1.17;;;;;;;14.90;100.00;102580.34;5038658;28;20029;-75
2023/10/08 09:43:39;;;;;;;5.72;1.00;;;;;;;14.94;100.00;102581.25;5038414;28;20107;-75
2023/10/08 09:46:15;;;;;;;5.70;1.10;;;;;;;15.00;100.00;102582.59;5040209;28;20041;-74
2023/10/08 09:48:44;;;;;;;8.00;1.08;;;;;;;14.97;100.00;102581.34;5036458;28;20396;-75
2023/10/08 09:51:12;;;;;;;5.28;1.58;;;;;;;15.00;100.00;102577.78;5045700;28;20029;-73
2023/10/08 09:54:02;;;;;;;3.05;0.95;;;;;;;15.00;100.00;102579.78;5043817;28;20083;-74
2023/10/08 09:56:31;;;;;;;7.28;2.15;;;;;;;15.16;100.00;102577.75;5030557;28;20045;-74
2023/10/08 09:58:57;;;;;;;6.78;1.25;;;;;;;15.03;100.00;102576.22;5041191;28;20555;-74
2023/10/08 10:01:24;;;;;;;6.90;1.00;;;;;;;15.24;100.00;102585.19;5034878;28;20021;-74
2023/10/08 10:03:50;;;;;;;4.85;1.00;;;;;;;15.25;100.00;102589.63;5053563;28;20641;-75
2023/10/08 10:06:18;;;;;;;7.22;0.60;;;;;;;15.32;100.00;102591.78;5045523;28;20036;-75
2023/10/08 10:08:45;;;;;;;2.47;1.20;;;;;;;15.33;100.00;102596.25;5022410;28;20024;-74
2023/10/08 10:11:10;;;;;;;3.22;1.17;;;;;;;15.32;100.00;102602.28;5052924;28;20032;-74
2023/10/08 10:13:44;;;;;;;4.25;1.20;;;;;;;15.32;100.00;102607.91;5053637;28;20028;-76
2023/10/08 10:16:10;;;;;;;2.58;1.10;;;;;;;16.31;100.00;102605.50;5036701;28;20027;-77
2023/10/08 10:18:36;;;;;;;4.88;1.05;;;;;;;16.22;100.00;102617.06;5015285;28;20048;-77
2023/10/08 10:21:07;;;;;;;6.72;1.20;;;;;;;16.31;100.00;102630.94;5020502;28;20029;-73
2023/10/08 10:23:43;;;;;;;6.03;1.25;;;;;;;15.67;100.00;102624.00;5036434;28;20052;-75
2023/10/08 10:26:30;;;;;;;27.83;2.38;;;;;;;15.64;100.00;102617.91;5040521;28;20075;-73
2023/10/08 10:29:07;;;;;;;3.65;1.00;;;;;;;15.61;100.00;102621.47;5040761;28;20044;-74
2023/10/08 10:31:36;;;;;;;6.95;1.50;;;;;;;15.44;100.00;102616.25;5042621;28;20109;-73
2023/10/08 10:34:08;;;;;;;4.97;0.90;;;;;;;15.52;100.00;102611.59;5043136;28;20484;-75
2023/10/08 10:36:37;;;;;;;5.90;1.50;;;;;;;15.53;100.00;102611.19;5044609;28;20040;-73
2023/10/08 10:39:17;;;;;;;5.13;1.25;;;;;;;15.57;100.00;102609.28;5036810;28;20029;-74
2023/10/08 10:41:48;;;;;;;2.75;1.05;;;;;;;15.64;100.00;102608.59;5042198;28;20704;-73
2023/10/08 10:44:14;;;;;;;1.88;0.85;;;;;;;15.68;100.00;102597.41;5040823;28;20489;-72
2023/10/08 10:46:50;;;;;;;7.55;1.10;;;;;;;15.67;100.00;102602.22;5044441;28;20029;-74
2023/10/08 10:49:22;;;;;;;6.97;1.35;;;;;;;15.71;100.00;102613.59;5039214;28;20072;-73
2023/10/08 10:51:57;;;;;;;9.43;1.23;;;;;;;15.76;100.00;102616.97;5028269;28;20017;-73
2023/10/08 10:54:25;;;;;;;2.65;1.00;;;;;;;15.74;100.00;102630.63;5024808;28;20484;-75
2023/10/08 10:57:03;;;;;;;4.32;1.13;;;;;;;15.65;100.00;102616.69;5026158;28;20044;-76
2023/10/08 10:59:37;;;;;;;2.53;1.40;;;;;;;15.87;100.00;102633.31;5041821;28;20021;-75
2023/10/08 11:02:21;;;;;;;3.97;0.95;;;;;;;15.84;100.00;102634.88;5041968;28;20044;-75
2023/10/08 11:04:47;;;;;;;4.63;1.20;;;;;;;15.82;100.00;102635.25;5020272;28;20025;-75
2023/10/08 11:07:23;;;;;;;3.40;1.08;;;;;;;15.83;100.00;102631.25;5042381;28;20037;-76
2023/10/08 11:09:51;;;;;;;5.55;1.23;;;;;;;15.80;100.00;102628.34;5044252;28;20035;-76
2023/10/08 11:12:32;;;;;;;3.25;0.85;;;;;;;15.78;100.00;102628.69;5045095;28;20036;-75
2023/10/08 11:14:58;;;;;;;5.15;1.00;;;;;;;15.78;100.00;102625.88;5019653;28;20493;-75
2023/10/08 11:17:26;;;;;;;1.95;0.88;;;;;;;15.70;100.00;102621.22;5020082;28;20037;-76
2023/10/08 11:19:52;;;;;;;5.18;1.52;;;;;;;15.81;100.00;102613.84;5031338;28;20028;-75
2023/10/08 11:22:18;;;;;;;6.32;1.20;;;;;;;15.81;100.00;102611.03;5040398;28;20489;-75
2023/10/08 11:24:53;;;;;;;5.95;0.95;;;;;;;15.90;100.00;102596.69;5037281;28;20560;-75
2023/10/08 11:27:29;;;;;;;2.65;1.42;;;;;;;16.13;100.00;102596.72;5042950;28;20397;-75
2023/10/08 11:29:57;;;;;;;11.18;2.65;;;;;;;16.38;100.00;102590.69;5039551;28;20124;-76
2023/10/08 11:32:25;;;;;;;1.88;0.60;;;;;;;16.37;99.60;102578.56;5046239;28;20028;-77
2023/10/08 11:35:00;;;;;;;5.25;1.52;;;;;;;16.55;98.50;102575.22;5049201;28;20043;-76
2023/10/08 11:37:33;;;;;;;3.25;1.30;;;;;;;17.20;100.00;102558.09;5036019;28;20037;-79
2023/10/08 11:39:59;;;;;;;4.40;1.00;;;;;;;17.36;98.35;102552.25;5038451;28;20022;-79
2023/10/08 11:44:59;;;;;;;2.95;1.27;;;;;;;17.74;100.00;102538.13;5043632;28;20432;-79
2023/10/08 11:47:35;;;;;;;3.80;1.13;;;;;;;17.86;100.00;102535.06;5036082;28;20036;-79
2023/10/08 11:50:10;;;;;;;4.65;1.10;;;;;;;17.91;100.00;102539.56;5032782;28;20040;-79
2023/10/08 11:52:41;;;;;;;4.13;1.85;;;;;;;18.24;100.00;102528.16;5023083;28;20028;-80
2023/10/08 11:55:20;;;;;;;8.50;1.20;;;;;;;18.05;98.76;102529.19;5035715;28;20033;-78
2023/10/08 11:57:50;;;;;;;4.30;1.08;;;;;;;17.65;98.94;102522.25;5026894;28;20437;-78
2023/10/08 12:00:19;;;;;;;2.97;1.13;;;;;;;17.79;97.71;102527.28;5035411;28;20050;-75
2023/10/08 12:02:49;;;;;;;2.85;0.90;;;;;;;17.86;100.00;102520.91;5030633;28;20029;-75
2023/10/08 12:05:23;;;;;;;1.77;1.20;;;;;;;17.53;93.86;102513.22;5031843;28;20095;-74
2023/10/08 12:07:51;;;;;;;5.15;1.67;;;;;;;17.21;94.40;102511.63;5033161;28;20086;-73
2023/10/08 12:10:22;;;;;;;4.13;1.27;;;;;;;17.09;97.23;102506.19;5029543;28;20029;-77
2023/10/08 12:12:59;;;;;;;3.38;1.20;;;;;;;17.40;100.00;102504.16;5037753;28;20037;-77
2023/10/08 12:15:34;;;;;;;4.38;2.13;;;;;;;17.49;96.15;102496.19;5017762;28;20056;-78
2023/10/08 12:18:08;;;;;;;2.38;1.02;;;;;;;17.25;91.44;102501.16;5042683;28;20397;-78
2023/10/08 12:20:44;;;;;;;3.08;0.98;;;;;;;17.26;94.09;102488.63;5042031;28;20037;-75
2023/10/08 12:23:25;;;;;;;2.25;0.95;;;;;;;17.18;98.67;102492.59;5041911;28;20551;-74
2023/10/08 12:25:59;;;;;;;3.33;1.50;;;;;;;17.60;99.04;102501.97;5033286;28;20052;-75
2023/10/08 12:28:27;;;;;;;4.85;1.30;;;;;;;17.51;90.58;102488.13;5028845;28;20049;-75